Time;durP1;ratioP1;P1;durP2;ratioP2;P2;SDS_P1;SDS_P2;PMS_P1;PMS_P2;Temp;Humidity;BMP_temperature;BMP_pressure;BME280_temperature;BME280_humidity;BME280_pressure;Samples;Min_cycle;Max_cycle;Signal;HPM_P1;HPM_P2
2021/08/13 00:01:42;;;;;;;24.13;21.53;;;20.50;99.70;;;;;;5036328;28;20656;-79
2021/08/13 00:04:09;;;;;;;24.17;21.50;;;20.40;99.80;;;;;;5053923;28;20177;-83
2021/08/13 00:06:40;;;;;;;25.20;20.90;;;20.10;99.90;;;;;;5054073;28;20172;-81
2021/08/13 00:09:08;;;;;;;24.43;21.30;;;20.00;99.90;;;;;;5053935;28;20627;-79
2021/08/13 00:11:39;;;;;;;25.03;22.30;;;20.00;99.90;;;;;;5035786;28;20173;-83
2021/08/13 00:14:06;;;;;;;28.30;22.97;;;20.00;99.90;;;;;;5053952;28;20632;-81
2021/08/13 00:16:31;;;;;;;26.77;22.53;;;20.00;99.90;;;;;;5053823;28;20688;-82
2021/08/13 00:18:57;;;;;;;24.93;21.87;;;20.10;99.90;;;;;;5069676;28;20203;-77
2021/08/13 00:21:23;;;;;;;27.80;22.60;;;20.30;98.30;;;;;;5077425;28;20179;-79
2021/08/13 00:23:49;;;;;;;26.73;22.83;;;20.30;96.70;;;;;;5071447;28;20163;-77
2021/08/13 00:26:17;;;;;;;28.17;22.97;;;20.40;95.50;;;;;;5066076;28;20242;-78
2021/08/13 00:28:45;;;;;;;29.83;23.30;;;20.40;94.50;;;;;;5054154;28;20157;-80
2021/08/13 00:31:11;;;;;;;28.77;23.00;;;20.60;92.80;;;;;;5053993;28;20168;-81
2021/08/13 00:33:36;;;;;;;31.37;23.07;;;20.60;92.40;;;;;;5053893;28;20631;-80
2021/08/13 00:36:02;;;;;;;29.07;24.00;;;20.70;92.60;;;;;;5052232;28;20191;-80
2021/08/13 00:38:28;;;;;;;29.80;22.93;;;20.70;92.70;;;;;;5053163;28;20178;-80
2021/08/13 00:40:54;;;;;;;32.53;23.70;;;20.70;92.10;;;;;;5063801;28;20195;-79
2021/08/13 00:43:19;;;;;;;28.57;23.70;;;20.70;90.70;;;;;;5078678;28;20156;-76
2021/08/13 00:45:45;;;;;;;27.07;23.20;;;20.80;90.80;;;;;;5078471;28;20191;-79
2021/08/13 00:48:10;;;;;;;29.40;22.73;;;20.70;90.10;;;;;;5071622;28;20248;-77
2021/08/13 00:50:37;;;;;;;24.03;20.93;;;20.70;90.20;;;;;;5041863;28;20177;-79
2021/08/13 00:53:05;;;;;;;25.93;21.70;;;20.70;90.00;;;;;;5053462;28;20215;-80
2021/08/13 00:55:36;;;;;;;27.07;22.70;;;20.80;88.70;;;;;;5053622;28;20165;-80
2021/08/13 00:58:02;;;;;;;27.87;23.87;;;20.90;85.60;;;;;;5053181;28;20177;-79
2021/08/13 01:00:28;;;;;;;28.00;22.90;;;21.00;78.30;;;;;;5053063;28;20213;-80
2021/08/13 01:02:54;;;;;;;30.07;23.23;;;20.90;69.80;;;;;;5053060;28;20171;-80
2021/08/13 01:05:20;;;;;;;33.37;23.63;;;20.80;69.30;;;;;;5035142;28;20179;-80
2021/08/13 01:07:46;;;;;;;33.47;22.57;;;20.60;73.40;;;;;;5052814;28;20691;-79
2021/08/13 01:10:13;;;;;;;30.63;22.70;;;20.50;78.20;;;;;;5053113;28;20183;-80
2021/08/13 01:13:08;;;;;;;30.53;21.83;;;20.40;82.80;;;;;;5053241;28;20199;-81
2021/08/13 01:15:40;;;;;;;30.03;21.57;;;20.60;82.10;;;;;;5053046;28;20206;-80
2021/08/13 01:18:07;;;;;;;28.03;22.53;;;20.60;81.00;;;;;;5052981;28;20635;-81
2021/08/13 01:21:21;;;;;;;27.77;21.40;;;20.80;78.50;;;;;;5052968;28;20215;-79
2021/08/13 01:23:51;;;;;;;27.67;21.27;;;20.90;77.70;;;;;;5039452;28;20242;-80
2021/08/13 01:26:18;;;;;;;27.67;21.37;;;20.90;76.70;;;;;;5052704;28;20192;-82
2021/08/13 01:29:01;;;;;;;25.60;21.30;;;20.90;75.00;;;;;;5052961;28;20219;-81
2021/08/13 01:31:27;;;;;;;24.87;20.33;;;20.80;78.10;;;;;;5034954;28;20169;-82
2021/08/13 01:34:04;;;;;;;26.67;20.73;;;20.80;80.70;;;;;;5052975;28;20535;-81
2021/08/13 01:36:31;;;;;;;26.17;21.93;;;20.60;83.10;;;;;;5052551;28;20204;-81
2021/08/13 01:39:02;;;;;;;26.43;21.37;;;20.60;84.30;;;;;;5052695;28;20196;-78
2021/08/13 01:41:33;;;;;;;26.00;21.50;;;20.60;83.60;;;;;;5052832;28;20272;-79
2021/08/13 01:43:59;;;;;;;25.73;21.33;;;20.70;79.40;;;;;;5052971;28;20173;-80
2021/08/13 01:46:25;;;;;;;24.80;21.50;;;20.70;75.20;;;;;;5052519;28;20187;-81
2021/08/13 01:48:51;;;;;;;23.60;19.90;;;20.90;69.80;;;;;;5052741;28;20173;-79
2021/08/13 01:51:18;;;;;;;25.77;19.67;;;20.80;67.00;;;;;;5054185;28;20172;-82
2021/08/13 01:53:48;;;;;;;26.07;20.47;;;20.90;64.00;;;;;;5056468;28;20180;-81
2021/08/13 01:56:14;;;;;;;22.93;20.53;;;20.80;67.20;;;;;;5056368;28;20199;-82
2021/08/13 01:58:40;;;;;;;26.07;20.50;;;20.70;68.30;;;;;;5056250;28;20206;-82
2021/08/13 02:01:06;;;;;;;25.70;21.07;;;20.60;70.80;;;;;;5056353;28;20176;-80
2021/08/13 02:03:33;;;;;;;23.70;19.80;;;20.70;67.70;;;;;;5055179;28;20714;-78
2021/08/13 02:05:59;;;;;;;23.10;19.97;;;20.80;67.80;;;;;;5056166;28;20183;-81
2021/08/13 02:08:27;;;;;;;25.60;20.07;;;20.70;70.10;;;;;;5056064;28;20172;-77
2021/08/13 02:10:53;;;;;;;24.73;20.30;;;20.70;68.80;;;;;;5056022;28;20221;-78
2021/08/13 02:13:20;;;;;;;29.10;20.57;;;20.70;69.80;;;;;;5038269;28;20172;-80
2021/08/13 02:15:53;;;;;;;23.70;19.70;;;20.50;75.90;;;;;;5056047;28;20507;-81
2021/08/13 02:18:30;;;;;;;25.50;21.43;;;20.60;73.30;;;;;;5055737;28;20183;-80
2021/08/13 02:21:01;;;;;;;25.20;21.13;;;20.60;73.20;;;;;;5055831;28;20178;-80
2021/08/13 02:23:27;;;;;;;26.30;21.10;;;20.60;73.00;;;;;;5055871;28;20172;-81
2021/08/13 02:25:52;;;;;;;26.80;21.10;;;20.50;76.40;;;;;;5056161;28;20174;-79
2021/08/13 02:28:18;;;;;;;29.30;22.17;;;20.40;77.90;;;;;;5037812;28;20222;-78
2021/08/13 02:30:44;;;;;;;27.20;21.00;;;20.40;78.80;;;;;;5056202;28;20274;-79
2021/08/13 02:33:10;;;;;;;27.73;22.67;;;20.30;79.90;;;;;;5056706;28;20171;-79
2021/08/13 02:35:35;;;;;;;30.00;22.70;;;20.10;84.60;;;;;;5059063;28;20634;-79
2021/08/13 02:38:10;;;;;;;29.20;22.30;;;20.10;86.20;;;;;;5059646;28;20175;-80
2021/08/13 02:40:53;;;;;;;29.83;22.73;;;20.00;88.10;;;;;;5059443;28;20210;-82
2021/08/13 02:43:25;;;;;;;26.37;21.57;;;20.00;89.40;;;;;;5061136;28;20204;-78
2021/08/13 02:45:54;;;;;;;25.07;21.23;;;20.00;89.80;;;;;;5057311;28;20197;-81
2021/08/13 02:48:20;;;;;;;26.07;20.97;;;20.00;90.30;;;;;;5056494;28;20189;-78
2021/08/13 02:50:47;;;;;;;29.30;20.10;;;19.90;91.50;;;;;;5056932;28;20607;-80
2021/08/13 02:53:21;;;;;;;27.43;20.87;;;19.80;92.20;;;;;;5040250;28;20233;-80
2021/08/13 02:56:06;;;;;;;25.40;20.03;;;19.70;93.10;;;;;;5056475;28;20175;-78
2021/08/13 02:58:41;;;;;;;24.17;21.23;;;19.70;93.30;;;;;;5056466;28;20188;-80
2021/08/13 03:01:11;;;;;;;25.50;20.87;;;19.80;93.30;;;;;;5039501;28;20175;-79
2021/08/13 03:03:37;;;;;;;23.87;21.27;;;19.60;93.50;;;;;;5039552;28;20179;-80
2021/08/13 03:06:04;;;;;;;27.57;20.87;;;19.70;93.50;;;;;;5055231;28;20167;-78
2021/08/13 03:08:30;;;;;;;26.03;21.83;;;19.70;93.20;;;;;;5037009;28;20543;-81
2021/08/13 03:10:57;;;;;;;27.00;21.07;;;19.90;92.70;;;;;;5055135;28;20180;-81
2021/08/13 03:13:25;;;;;;;26.93;22.17;;;20.00;91.00;;;;;;5055111;28;20543;-81
2021/08/13 03:15:52;;;;;;;26.43;21.77;;;20.00;90.50;;;;;;5055038;28;20168;-79
2021/08/13 03:18:18;;;;;;;26.27;21.20;;;20.00;89.40;;;;;;5054764;28;20190;-80
2021/08/13 03:20:44;;;;;;;24.63;20.87;;;20.00;90.50;;;;;;5054778;28;20207;-80
2021/08/13 03:23:10;;;;;;;24.47;21.30;;;19.90;91.20;;;;;;5038574;28;20236;-81
2021/08/13 03:25:37;;;;;;;26.13;20.33;;;19.70;92.50;;;;;;5056986;28;20177;-80
2021/08/13 03:28:07;;;;;;;26.23;20.93;;;19.50;93.40;;;;;;5061655;28;20168;-80
2021/08/13 03:30:43;;;;;;;22.93;19.60;;;19.40;94.20;;;;;;5059431;28;20170;-78
2021/08/13 03:33:10;;;;;;;26.00;20.37;;;19.40;94.10;;;;;;5063197;28;20181;-77
2021/08/13 03:35:37;;;;;;;27.27;21.17;;;19.60;92.70;;;;;;5079317;28;20151;-77
2021/08/13 03:38:03;;;;;;;26.00;21.97;;;19.60;91.90;;;;;;5071910;28;20183;-77
2021/08/13 03:40:29;;;;;;;26.23;21.97;;;19.60;92.20;;;;;;5069253;28;20669;-79
2021/08/13 03:42:56;;;;;;;24.17;20.43;;;19.70;92.00;;;;;;5054881;28;20250;-81
2021/08/13 03:45:22;;;;;;;27.40;21.30;;;19.50;93.30;;;;;;5054378;28;20202;-80
2021/08/13 03:47:48;;;;;;;22.93;20.40;;;19.50;92.80;;;;;;5036234;28;20178;-80
2021/08/13 03:50:14;;;;;;;26.67;22.07;;;19.50;93.00;;;;;;5054168;28;20622;-81
2021/08/13 03:52:40;;;;;;;24.80;21.30;;;19.40;93.90;;;;;;5054674;28;20192;-81
2021/08/13 03:55:06;;;;;;;24.87;21.57;;;19.40;94.50;;;;;;5060572;28;20144;-78
2021/08/13 03:57:32;;;;;;;26.33;20.27;;;19.30;95.50;;;;;;5079199;28;20174;-78
2021/08/13 03:59:58;;;;;;;23.70;20.20;;;19.30;95.40;;;;;;5075296;28;20208;-80
2021/08/13 04:02:23;;;;;;;25.00;20.73;;;19.30;95.70;;;;;;5065594;28;20179;-77
2021/08/13 04:04:52;;;;;;;24.50;21.03;;;19.30;95.30;;;;;;5060742;28;20200;-80
2021/08/13 04:07:17;;;;;;;25.43;21.37;;;19.20;95.70;;;;;;5036142;28;20191;-82
2021/08/13 04:09:43;;;;;;;30.17;21.37;;;19.20;95.90;;;;;;5053894;28;20640;-80
2021/08/13 04:12:09;;;;;;;27.17;22.17;;;19.20;96.20;;;;;;5053999;28;20174;-81
2021/08/13 04:14:35;;;;;;;31.33;21.63;;;19.30;95.60;;;;;;5054064;28;20183;-80
2021/08/13 04:17:00;;;;;;;28.07;22.23;;;19.20;95.40;;;;;;5053695;28;20691;-80
2021/08/13 04:19:26;;;;;;;26.60;21.43;;;19.30;95.40;;;;;;5053796;28;20218;-81
2021/08/13 04:21:51;;;;;;;28.20;20.97;;;19.40;94.50;;;;;;5053699;28;20179;-82
2021/08/13 04:24:17;;;;;;;25.67;20.80;;;19.30;93.50;;;;;;5053685;28;20582;-81
2021/08/13 04:26:43;;;;;;;24.53;20.43;;;19.30;93.60;;;;;;5053697;28;20272;-80
2021/08/13 04:29:09;;;;;;;25.10;19.77;;;19.20;93.30;;;;;;5053465;28;20177;-77
2021/08/13 04:31:34;;;;;;;21.47;18.87;;;19.00;95.20;;;;;;5053914;28;20169;-80
2021/08/13 04:34:01;;;;;;;21.10;18.20;;;19.10;93.90;;;;;;5053524;28;20165;-81
2021/08/13 04:36:28;;;;;;;23.03;18.33;;;19.00;94.30;;;;;;5053324;28;20701;-83
2021/08/13 04:38:53;;;;;;;22.37;19.00;;;19.00;93.60;;;;;;5053510;28;20242;-81
2021/08/13 04:41:19;;;;;;;22.20;17.67;;;19.00;94.10;;;;;;5055331;28;20181;-81
2021/08/13 04:43:45;;;;;;;23.43;18.47;;;18.90;94.40;;;;;;5053554;28;20545;-81
2021/08/13 04:46:11;;;;;;;21.33;17.63;;;18.90;94.20;;;;;;5052862;28;20216;-81
2021/08/13 04:48:36;;;;;;;21.57;17.63;;;18.70;95.80;;;;;;5053450;28;20194;-80
2021/08/13 04:51:02;;;;;;;20.10;16.43;;;18.60;96.20;;;;;;5036029;28;20182;-81
2021/08/13 04:53:28;;;;;;;22.67;18.60;;;18.60;96.90;;;;;;5053719;28;20256;-80
2021/08/13 04:55:54;;;;;;;20.20;17.23;;;18.70;96.50;;;;;;5035332;28;20173;-80
2021/08/13 04:58:20;;;;;;;27.50;18.47;;;18.80;96.20;;;;;;5053162;28;20177;-80
2021/08/13 05:00:47;;;;;;;20.37;17.37;;;18.70;95.90;;;;;;5052960;28;20205;-80
2021/08/13 05:03:14;;;;;;;20.10;15.97;;;18.70;95.90;;;;;;5053028;28;20314;-81
2021/08/13 05:05:40;;;;;;;18.77;14.60;;;18.80;95.00;;;;;;5053182;28;20219;-80
2021/08/13 05:08:06;;;;;;;17.17;14.17;;;19.00;90.80;;;;;;5052930;28;20513;-81
2021/08/13 05:10:32;;;;;;;17.03;14.57;;;19.10;87.00;;;;;;5035762;28;20276;-79
2021/08/13 05:12:57;;;;;;;16.93;14.30;;;19.00;88.70;;;;;;5053112;28;20189;-81
2021/08/13 05:15:23;;;;;;;15.40;12.23;;;19.00;89.70;;;;;;5052796;28;20226;-80
2021/08/13 05:17:49;;;;;;;16.23;11.97;;;19.00;86.60;;;;;;5052960;28;20169;-80
2021/08/13 05:20:15;;;;;;;14.33;11.33;;;19.00;82.60;;;;;;5053106;28;20210;-80
2021/08/13 05:22:40;;;;;;;12.53;10.50;;;19.10;80.20;;;;;;5034780;28;20264;-80
2021/08/13 05:25:09;;;;;;;12.20;10.00;;;19.00;72.80;;;;;;5053029;28;20711;-83
2021/08/13 05:27:36;;;;;;;12.23;10.47;;;19.00;75.30;;;;;;5056838;28;20200;-79
2021/08/13 05:30:03;;;;;;;14.27;11.13;;;18.90;79.20;;;;;;5056473;28;20161;-81
2021/08/13 05:32:29;;;;;;;12.37;9.33;;;18.80;81.50;;;;;;5056739;28;20228;-79
2021/08/13 05:34:55;;;;;;;11.47;10.07;;;18.90;78.10;;;;;;5056985;28;20161;-80
2021/08/13 05:37:21;;;;;;;14.53;10.63;;;18.80;81.40;;;;;;5056729;28;20579;-81
2021/08/13 05:39:46;;;;;;;13.80;8.77;;;18.70;84.90;;;;;;5056705;28;20579;-81
2021/08/13 05:42:13;;;;;;;13.83;10.93;;;18.70;84.70;;;;;;5057478;28;20184;-81
2021/08/13 05:44:39;;;;;;;10.73;8.50;;;18.70;84.80;;;;;;5055882;28;20196;-82
2021/08/13 05:47:05;;;;;;;11.53;8.27;;;18.90;79.60;;;;;;5056310;28;20173;-82
2021/08/13 05:49:31;;;;;;;11.80;8.60;;;18.80;78.00;;;;;;5056761;28;20173;-82
2021/08/13 05:52:00;;;;;;;10.57;8.87;;;18.90;79.10;;;;;;5056436;28;20542;-82
2021/08/13 05:54:27;;;;;;;11.40;9.13;;;18.90;78.70;;;;;;5056494;28;20272;-81
2021/08/13 05:56:53;;;;;;;10.80;8.93;;;18.90;80.80;;;;;;5056563;28;20516;-81
2021/08/13 05:59:18;;;;;;;10.93;8.40;;;18.80;81.50;;;;;;5056086;28;20212;-82
2021/08/13 06:01:44;;;;;;;9.43;7.80;;;19.00;80.10;;;;;;5056442;28;20206;-81
2021/08/13 06:04:10;;;;;;;10.37;8.07;;;18.90;80.40;;;;;;5056292;28;20166;-80
2021/08/13 06:06:36;;;;;;;11.10;7.77;;;18.90;79.60;;;;;;5056596;28;20180;-79
2021/08/13 06:09:03;;;;;;;11.13;7.70;;;19.10;74.30;;;;;;5056346;28;20253;-82
2021/08/13 06:11:28;;;;;;;10.37;7.37;;;19.10;73.10;;;;;;5056238;28;20259;-79
2021/08/13 06:13:54;;;;;;;10.27;7.83;;;19.10;72.50;;;;;;5056863;28;20207;-81
2021/08/13 06:16:20;;;;;;;9.20;7.60;;;19.30;69.50;;;;;;5057573;28;20169;-80
2021/08/13 06:18:46;;;;;;;9.80;7.67;;;19.20;67.00;;;;;;5056266;28;20165;-82
2021/08/13 06:21:12;;;;;;;8.83;7.50;;;19.20;66.70;;;;;;5056370;28;20245;-82
2021/08/13 06:23:38;;;;;;;9.83;7.33;;;19.00;69.40;;;;;;5056292;28;20162;-81
2021/08/13 06:26:03;;;;;;;9.03;7.23;;;18.90;72.30;;;;;;5059118;28;20189;-81
2021/08/13 06:28:29;;;;;;;9.60;6.97;;;18.90;74.70;;;;;;5058206;28;20200;-81
2021/08/13 06:30:54;;;;;;;8.90;7.10;;;18.90;78.20;;;;;;5055672;28;20219;-79
2021/08/13 06:33:20;;;;;;;9.13;6.77;;;18.80;80.90;;;;;;5056663;28;20177;-81
2021/08/13 06:35:46;;;;;;;10.07;7.77;;;19.00;75.80;;;;;;5058760;28;20161;-79
2021/08/13 06:38:12;;;;;;;9.40;6.80;;;19.00;75.70;;;;;;5055886;28;20181;-82
2021/08/13 06:40:37;;;;;;;10.43;6.73;;;19.10;71.90;;;;;;5058742;28;20213;-81
2021/08/13 06:43:03;;;;;;;9.37;6.73;;;19.10;73.10;;;;;;5057231;28;20676;-82
2021/08/13 06:45:29;;;;;;;8.37;6.47;;;19.20;72.50;;;;;;5056438;28;20192;-82
2021/08/13 06:47:54;;;;;;;9.97;7.10;;;19.30;71.80;;;;;;5065993;28;20153;-77
2021/08/13 06:50:21;;;;;;;8.37;7.47;;;19.20;73.90;;;;;;5079792;28;20195;-79
2021/08/13 06:52:46;;;;;;;9.53;7.07;;;19.30;72.00;;;;;;5060008;28;20173;-81
2021/08/13 06:55:12;;;;;;;9.13;6.70;;;19.30;72.50;;;;;;5055672;28;20177;-82
2021/08/13 06:57:40;;;;;;;8.23;7.33;;;19.40;72.90;;;;;;5055282;28;20174;-79
2021/08/13 07:00:09;;;;;;;8.73;6.70;;;19.50;68.50;;;;;;5055254;28;20211;-78
2021/08/13 07:02:35;;;;;;;7.93;6.67;;;19.50;66.90;;;;;;5055913;28;20170;-80
2021/08/13 07:05:01;;;;;;;8.47;6.90;;;19.50;68.50;;;;;;5055528;28;20228;-82
2021/08/13 07:07:26;;;;;;;8.27;6.47;;;19.60;68.30;;;;;;5054286;28;20630;-78
2021/08/13 07:09:52;;;;;;;10.07;6.50;;;19.40;70.40;;;;;;5063379;28;20169;-77
2021/08/13 07:12:18;;;;;;;9.70;7.20;;;19.30;71.80;;;;;;5079327;28;20171;-77
2021/08/13 07:14:44;;;;;;;7.50;6.60;;;19.10;74.30;;;;;;5073243;28;20252;-78
2021/08/13 07:17:10;;;;;;;9.70;6.57;;;19.10;77.20;;;;;;5069786;28;20176;-81
2021/08/13 07:19:36;;;;;;;9.97;6.50;;;19.10;77.00;;;;;;5055253;28;20564;-84
2021/08/13 07:22:04;;;;;;;6.93;6.03;;;19.10;78.10;;;;;;5055205;28;20173;-81
2021/08/13 07:24:30;;;;;;;8.63;6.13;;;19.20;74.80;;;;;;5054807;28;20207;-81
2021/08/13 07:26:55;;;;;;;7.70;6.43;;;19.10;78.30;;;;;;5055219;28;20185;-82
2021/08/13 07:29:22;;;;;;;9.83;6.93;;;19.10;77.60;;;;;;5053584;28;20537;-83
2021/08/13 07:31:48;;;;;;;7.03;5.53;;;19.10;79.00;;;;;;5055033;28;20168;-83
2021/08/13 07:34:14;;;;;;;7.60;6.27;;;19.30;78.30;;;;;;5054844;28;20173;-82
2021/08/13 07:36:40;;;;;;;9.00;6.37;;;19.40;76.20;;;;;;5053400;28;20201;-81
2021/08/13 07:39:05;;;;;;;7.23;5.93;;;19.50;71.20;;;;;;5054327;28;20201;-82
2021/08/13 07:41:31;;;;;;;7.43;5.90;;;19.40;68.70;;;;;;5054301;28;20184;-82
2021/08/13 07:43:57;;;;;;;7.43;6.00;;;19.30;69.30;;;;;;5054602;28;20566;-83
2021/08/13 07:46:22;;;;;;;7.63;5.67;;;19.30;69.70;;;;;;5054498;28;20598;-81
2021/08/13 07:48:48;;;;;;;7.23;5.53;;;19.30;67.90;;;;;;5052978;28;20260;-81
2021/08/13 07:51:14;;;;;;;7.73;5.67;;;19.40;66.80;;;;;;5054449;28;20168;-82
2021/08/13 07:53:40;;;;;;;8.30;5.90;;;19.40;70.80;;;;;;5054357;28;20173;-82
2021/08/13 07:56:06;;;;;;;7.07;5.47;;;19.50;70.90;;;;;;5061874;28;20195;-79
2021/08/13 07:58:32;;;;;;;8.67;5.50;;;19.50;67.50;;;;;;5054591;28;20634;-80
2021/08/13 08:00:57;;;;;;;6.73;5.13;;;19.90;66.20;;;;;;5055131;28;20207;-81
2021/08/13 08:03:23;;;;;;;6.73;4.83;;;20.00;51.20;;;;;;5054143;28;20166;-79
2021/08/13 08:05:49;;;;;;;7.37;4.60;;;20.00;45.00;;;;;;5054125;28;20202;-81
2021/08/13 08:08:14;;;;;;;9.53;7.10;;;20.10;36.10;;;;;;5052473;28;20169;-82
2021/08/13 08:10:46;;;;;;;6.03;4.30;;;20.10;34.00;;;;;;5054404;28;20184;-82
2021/08/13 08:13:15;;;;;;;5.67;3.73;;;20.20;31.90;;;;;;5054213;28;20174;-81
2021/08/13 08:15:41;;;;;;;7.30;4.43;;;20.30;12.00;;;;;;5053654;28;20699;-80
2021/08/13 08:18:07;;;;;;;9.83;6.70;;;20.30;9.60;;;;;;5054039;28;20178;-81
2021/08/13 08:20:33;;;;;;;7.43;4.47;;;20.50;1.00;;;;;;5053393;28;20546;-79
2021/08/13 08:22:59;;;;;;;9.93;6.33;;;20.50;1.00;;;;;;5053501;28;20635;-81
2021/08/13 08:25:24;;;;;;;5.80;3.80;;;20.50;1.00;;;;;;5053233;28;20180;-82
2021/08/13 08:27:50;;;;;;;6.80;4.50;;;20.50;1.00;;;;;;5053454;28;20189;-82
2021/08/13 08:30:16;;;;;;;5.67;4.07;;;20.50;4.00;;;;;;5053314;28;20168;-81
2021/08/13 08:32:41;;;;;;;6.00;3.90;;;20.60;10.60;;;;;;5053434;28;20530;-82
2021/08/13 08:35:07;;;;;;;6.60;4.00;;;20.70;2.10;;;;;;5053948;28;20588;-81
2021/08/13 08:37:33;;;;;;;7.07;4.07;;;20.90;1.00;;;;;;5052767;28;20174;-80
2021/08/13 08:39:58;;;;;;;5.17;2.87;;;20.90;1.00;;;;;;5053089;28;20583;-81
2021/08/13 08:42:24;;;;;;;10.33;5.90;;;21.10;1.00;;;;;;5053176;28;20530;-79
2021/08/13 08:44:50;;;;;;;21.23;13.67;;;21.40;1.00;;;;;;5053395;28;20562;-82
2021/08/13 08:47:19;;;;;;;9.27;6.50;;;21.40;1.00;;;;;;5053317;28;20191;-82
2021/08/13 08:49:47;;;;;;;6.93;3.60;;;21.20;1.00;;;;;;5053142;28;20167;-81
2021/08/13 08:52:14;;;;;;;6.50;3.50;;;20.90;1.00;;;;;;5053061;28;20183;-81
2021/08/13 08:54:41;;;;;;;4.93;2.70;;;20.80;1.00;;;;;;5053018;28;20190;-82
2021/08/13 08:57:07;;;;;;;3.93;2.90;;;21.00;1.00;;;;;;5053276;28;20175;-82
2021/08/13 08:59:33;;;;;;;4.90;3.00;;;21.20;1.00;;;;;;5052966;28;20269;-81
2021/08/13 09:02:00;;;;;;;6.87;4.07;;;21.20;1.00;;;;;;5052370;28;20202;-82
2021/08/13 09:04:26;;;;;;;12.27;8.93;;;21.20;1.00;;;;;;5053157;28;20256;-77
2021/08/13 09:06:52;;;;;;;22.00;13.73;;;21.20;1.00;;;;;;5053038;28;20207;-83
2021/08/13 09:09:19;;;;;;;28.80;21.67;;;21.10;1.00;;;;;;5053189;28;20187;-80
2021/08/13 09:11:46;;;;;;;5.47;3.20;;;21.20;1.00;;;;;;5052836;28;20676;-82
2021/08/13 09:14:13;;;;;;;4.70;2.90;;;21.20;1.00;;;;;;5053047;28;20558;-82
2021/08/13 09:16:40;;;;;;;6.00;3.00;;;21.30;1.00;;;;;;5035232;28;20578;-82
2021/08/13 09:19:08;;;;;;;5.27;3.47;;;21.50;1.00;;;;;;5052810;28;20231;-83
2021/08/13 09:21:35;;;;;;;5.03;3.03;;;21.80;1.00;;;;;;5052783;28;20205;-82
2021/08/13 09:24:09;;;;;;;4.63;3.00;;;22.10;1.00;;;;;;5053598;28;20502;-81
2021/08/13 09:26:41;;;;;;;6.20;2.80;;;22.40;1.00;;;;;;5053010;28;20185;-80
2021/08/13 09:29:07;;;;;;;5.40;3.13;;;22.50;1.00;;;;;;5052618;28;20163;-81
2021/08/13 09:31:35;;;;;;;4.93;2.97;;;22.60;1.00;;;;;;5052775;28;20652;-82
2021/08/13 09:34:14;;;;;;;5.67;3.20;;;22.60;1.00;;;;;;5052986;28;20203;-82
2021/08/13 09:36:49;;;;;;;4.03;2.90;;;22.70;1.00;;;;;;5052370;28;20166;-80
2021/08/13 09:39:15;;;;;;;4.77;2.93;;;22.80;1.00;;;;;;5052396;28;20319;-80
2021/08/13 09:41:48;;;;;;;4.50;2.60;;;22.90;99.90;;;;;;5053220;28;20583;-81
2021/08/13 09:44:38;;;;;;;4.73;3.03;;;23.00;99.90;;;;;;5052680;28;20170;-80
2021/08/13 09:47:07;;;;;;;4.33;2.73;;;23.10;99.90;;;;;;5052485;28;20203;-81
2021/08/13 09:49:35;;;;;;;8.50;2.90;;;23.00;99.90;;;;;;5052713;28;20255;-80
2021/08/13 09:52:15;;;;;;;4.43;2.90;;;23.10;99.90;;;;;;5035471;28;20274;-81
2021/08/13 09:54:42;;;;;;;4.17;3.03;;;23.10;99.90;;;;;;5052680;28;20254;-79
2021/08/13 09:57:09;;;;;;;4.20;3.07;;;23.10;1.00;;;;;;5052761;28;20162;-83
2021/08/13 09:59:37;;;;;;;5.07;3.07;;;22.80;99.90;;;;;;5052859;28;20298;-81
2021/08/13 10:02:14;;;;;;;5.73;3.10;;;22.80;5.40;;;;;;5060410;28;20201;-79
2021/08/13 10:04:41;;;;;;;4.37;3.07;;;22.80;1.00;;;;;;5069285;28;20167;-80
2021/08/13 10:07:07;;;;;;;6.30;3.30;;;22.80;1.00;;;;;;5066060;28;20171;-82
2021/08/13 10:09:32;;;;;;;5.60;3.27;;;22.70;1.00;;;;;;5056822;28;20187;-80
2021/08/13 10:12:01;;;;;;;5.50;3.30;;;22.60;1.00;;;;;;5054251;28;20179;-80
2021/08/13 10:14:45;;;;;;;5.10;3.17;;;22.70;99.90;;;;;;5057166;28;20280;-78
2021/08/13 10:17:12;;;;;;;5.50;3.00;;;23.00;1.00;;;;;;5056731;28;20503;-82
2021/08/13 10:19:40;;;;;;;4.40;2.93;;;23.00;99.90;;;;;;5056277;28;20198;-78
2021/08/13 10:22:06;;;;;;;5.27;3.23;;;23.10;99.90;;;;;;5056385;28;20199;-81
2021/08/13 10:24:33;;;;;;;5.60;3.47;;;23.10;99.90;;;;;;5058784;28;20226;-78
2021/08/13 10:27:00;;;;;;;5.07;3.40;;;23.30;99.90;;;;;;5078021;28;20196;-77
2021/08/13 10:29:27;;;;;;;5.40;3.00;;;23.50;99.90;;;;;;5069688;28;20175;-80
2021/08/13 10:31:55;;;;;;;6.10;3.57;;;23.50;1.00;;;;;;5066212;28;20162;-80
2021/08/13 10:34:22;;;;;;;5.90;3.47;;;23.50;1.00;;;;;;5057755;28;20182;-82
2021/08/13 10:36:50;;;;;;;5.53;3.37;;;23.50;1.00;;;;;;5056447;28;20172;-81
2021/08/13 10:39:21;;;;;;;5.70;3.43;;;23.30;99.90;;;;;;5056583;28;20203;-83
2021/08/13 10:41:56;;;;;;;5.53;3.77;;;23.20;99.90;;;;;;5057058;28;20251;-83
2021/08/13 10:44:26;;;;;;;6.93;3.20;;;23.30;1.00;;;;;;5057084;28;20566;-82
2021/08/13 10:46:55;;;;;;;6.03;3.60;;;23.50;99.90;;;;;;5056785;28;20168;-83
2021/08/13 10:49:22;;;;;;;6.27;3.67;;;23.50;99.90;;;;;;5059204;28;20176;-82
2021/08/13 10:52:05;;;;;;;6.13;3.33;;;23.70;1.00;;;;;;5061728;28;20178;-82
2021/08/13 10:54:40;;;;;;;6.23;3.20;;;23.60;99.90;;;;;;5058947;28;20178;-82
2021/08/13 10:57:13;;;;;;;5.30;3.30;;;23.40;1.00;;;;;;5058965;28;20260;-82
2021/08/13 10:59:39;;;;;;;5.47;3.37;;;23.50;1.00;;;;;;5058172;28;20212;-79
2021/08/13 11:02:10;;;;;;;7.03;3.30;;;23.60;1.00;;;;;;5056784;28;20294;-82
2021/08/13 11:04:40;;;;;;;4.73;3.37;;;23.50;1.00;;;;;;5057551;28;20163;-80
2021/08/13 11:07:06;;;;;;;7.63;3.60;;;23.50;99.90;;;;;;5056678;28;20168;-83
2021/08/13 11:09:34;;;;;;;5.73;3.40;;;23.60;99.90;;;;;;5054770;28;20710;-81
2021/08/13 11:12:18;;;;;;;8.37;3.70;;;23.50;99.90;;;;;;5055812;28;20185;-82
2021/08/13 11:14:48;;;;;;;6.27;3.87;;;23.50;99.90;;;;;;5055036;28;20584;-81
2021/08/13 11:17:43;;;;;;;5.67;3.20;;;23.60;1.00;;;;;;5055111;28;20176;-81
2021/08/13 11:20:14;;;;;;;5.73;3.37;;;23.60;1.00;;;;;;5055344;28;20213;-80
2021/08/13 11:22:41;;;;;;;5.37;3.77;;;23.40;99.90;;;;;;5055188;28;20654;-81
2021/08/13 11:25:09;;;;;;;6.00;3.53;;;23.30;1.00;;;;;;5054559;28;20193;-82
2021/08/13 11:27:35;;;;;;;8.63;3.90;;;23.20;99.90;;;;;;5055327;28;20187;-81
2021/08/13 11:30:02;;;;;;;8.13;4.23;;;23.20;99.90;;;;;;5055485;28;20204;-79
2021/08/13 11:32:33;;;;;;;6.33;3.87;;;23.30;1.00;;;;;;5055419;28;20203;-82
2021/08/13 11:35:09;;;;;;;6.30;3.60;;;23.20;99.90;;;;;;5056598;28;20522;-81
2021/08/13 11:37:35;;;;;;;6.33;3.67;;;23.30;99.90;;;;;;5058040;28;20174;-81
2021/08/13 11:40:11;;;;;;;6.23;3.60;;;23.50;99.90;;;;;;5055882;28;20675;-83
2021/08/13 11:42:45;;;;;;;6.93;4.00;;;23.60;99.90;;;;;;5055393;28;20214;-81
2021/08/13 11:45:11;;;;;;;5.50;3.23;;;23.60;99.90;;;;;;5055492;28;20267;-81
2021/08/13 11:47:36;;;;;;;5.50;3.43;;;23.70;1.00;;;;;;5054221;28;20181;-81
2021/08/13 11:50:07;;;;;;;7.23;3.70;;;23.70;1.00;;;;;;5054312;28;20179;-81
2021/08/13 11:52:35;;;;;;;8.47;3.93;;;23.70;99.90;;;;;;5054248;28;20168;-80
2021/08/13 11:55:21;;;;;;;6.17;3.43;;;23.60;1.00;;;;;;5036579;28;20179;-82
2021/08/13 11:57:48;;;;;;;6.63;3.80;;;23.60;1.00;;;;;;5054016;28;20155;-83
2021/08/13 12:00:18;;;;;;;6.30;3.80;;;23.50;1.00;;;;;;5053913;28;20713;-79
2021/08/13 12:02:44;;;;;;;5.77;3.53;;;23.50;1.00;;;;;;5054124;28;20729;-79
2021/08/13 12:05:11;;;;;;;7.40;3.87;;;23.60;1.00;;;;;;5036245;28;20207;-82
2021/08/13 12:07:37;;;;;;;6.20;3.63;;;23.80;99.90;;;;;;5054729;28;20220;-83
2021/08/13 12:10:14;;;;;;;6.17;3.63;;;24.00;1.00;;;;;;5063966;28;20187;-80
2021/08/13 12:12:41;;;;;;;5.03;3.53;;;24.20;1.00;;;;;;5053777;28;20278;-78
2021/08/13 12:15:08;;;;;;;5.60;3.63;;;24.20;99.90;;;;;;5053195;28;20211;-83
2021/08/13 12:17:34;;;;;;;6.87;3.93;;;24.20;1.00;;;;;;5053724;28;20230;-82
2021/08/13 12:20:04;;;;;;;5.87;3.33;;;24.20;99.90;;;;;;5053523;28;20196;-82
2021/08/13 12:22:40;;;;;;;7.60;3.60;;;24.40;1.00;;;;;;5053290;28;20260;-79
2021/08/13 12:25:08;;;;;;;6.63;3.53;;;24.60;1.00;;;;;;5053683;28;20187;-81
2021/08/13 12:27:37;;;;;;;6.67;3.80;;;24.50;1.00;;;;;;5053417;28;20189;-82
2021/08/13 12:30:13;;;;;;;9.03;3.57;;;24.60;99.90;;;;;;5035350;28;20180;-81
2021/08/13 12:32:43;;;;;;;7.27;3.90;;;24.60;1.00;;;;;;5053711;28;20168;-82
2021/08/13 12:35:12;;;;;;;6.83;3.80;;;24.40;1.00;;;;;;5053656;28;20195;-81
2021/08/13 12:37:39;;;;;;;7.13;3.50;;;24.20;1.00;;;;;;5053304;28;20170;-81
2021/08/13 12:40:08;;;;;;;5.60;3.40;;;24.40;99.90;;;;;;5054692;28;20216;-78
2021/08/13 12:42:35;;;;;;;5.80;3.57;;;24.50;99.90;;;;;;5053424;28;20208;-82
2021/08/13 12:45:06;;;;;;;6.60;3.83;;;24.30;99.90;;;;;;5053368;28;20248;-81